sensor_id;sensor_type;location;lat;lon;timestamp;temperature;humidity
19007;DHT22;9636;47.382;8.480;2023-11-19T00:02:26;12.90;99.90
19007;DHT22;9636;47.382;8.480;2023-11-19T00:04:53;12.90;99.90
19007;DHT22;9636;47.382;8.480;2023-11-19T00:07:20;12.90;99.90
19007;DHT22;9636;47.382;8.480;2023-11-19T00:09:47;12.90;99.90
19007;DHT22;9636;47.382;8.480;2023-11-19T00:12:14;12.90;99.90
19007;DHT22;9636;47.382;8.480;2023-11-19T00:14:41;12.90;99.90
19007;DHT22;9636;47.382;8.480;2023-11-19T00:17:08;12.90;99.90
19007;DHT22;9636;47.382;8.480;2023-11-19T00:19:36;12.90;99.90
19007;DHT22;9636;47.382;8.480;2023-11-19T00:22:03;12.90;99.90
19007;DHT22;9636;47.382;8.480;2023-11-19T00:24:30;12.90;99.90
19007;DHT22;9636;47.382;8.480;2023-11-19T00:26:57;12.90;99.90
19007;DHT22;9636;47.382;8.480;2023-11-19T00:29:24;12.90;99.90
19007;DHT22;9636;47.382;8.480;2023-11-19T00:31:50;12.90;99.90
19007;DHT22;9636;47.382;8.480;2023-11-19T00:34:17;12.90;99.90
19007;DHT22;9636;47.382;8.480;2023-11-19T00:36:48;12.80;99.90
19007;DHT22;9636;47.382;8.480;2023-11-19T00:39:15;12.80;99.90
19007;DHT22;9636;47.382;8.480;2023-11-19T00:41:43;12.80;99.90
19007;DHT22;9636;47.382;8.480;2023-11-19T00:44:11;12.90;99.90
19007;DHT22;9636;47.382;8.480;2023-11-19T00:46:38;12.80;99.90
19007;DHT22;9636;47.382;8.480;2023-11-19T00:49:05;12.80;99.90
19007;DHT22;9636;47.382;8.480;2023-11-19T00:51:31;12.80;99.90
19007;DHT22;9636;47.382;8.480;2023-11-19T00:54:01;12.80;99.90
19007;DHT22;9636;47.382;8.480;2023-11-19T00:56:28;12.80;99.90
19007;DHT22;9636;47.382;8.480;2023-11-19T00:58:54;12.80;99.90
19007;DHT22;9636;47.382;8.480;2023-11-19T01:01:22;12.80;99.90
19007;DHT22;9636;47.382;8.480;2023-11-19T01:03:48;12.80;99.90
19007;DHT22;9636;47.382;8.480;2023-11-19T01:06:15;12.80;99.90
19007;DHT22;9636;47.382;8.480;2023-11-19T01:08:52;12.80;99.90
19007;DHT22;9636;47.382;8.480;2023-11-19T01:11:22;12.80;99.90
19007;DHT22;9636;47.382;8.480;2023-11-19T01:13:50;12.80;99.90
19007;DHT22;9636;47.382;8.480;2023-11-19T01:16:17;12.80;99.90
19007;DHT22;9636;47.382;8.480;2023-11-19T01:18:44;12.80;99.90
19007;DHT22;9636;47.382;8.480;2023-11-19T01:21:12;12.80;99.90
19007;DHT22;9636;47.382;8.480;2023-11-19T01:23:40;12.80;99.90
19007;DHT22;9636;47.382;8.480;2023-11-19T01:26:08;12.70;99.90
19007;DHT22;9636;47.382;8.480;2023-11-19T01:28:37;12.80;99.90
19007;DHT22;9636;47.382;8.480;2023-11-19T01:31:05;12.70;99.90
19007;DHT22;9636;47.382;8.480;2023-11-19T01:33:34;12.70;99.90
19007;DHT22;9636;47.382;8.480;2023-11-19T01:36:02;12.70;99.90
19007;DHT22;9636;47.382;8.480;2023-11-19T01:38:29;12.70;99.90
19007;DHT22;9636;47.382;8.480;2023-11-19T01:40:56;12.70;99.90
19007;DHT22;9636;47.382;8.480;2023-11-19T01:43:38;12.70;99.90
19007;DHT22;9636;47.382;8.480;2023-11-19T01:46:07;12.70;99.90
19007;DHT22;9636;47.382;8.480;2023-11-19T01:48:35;12.70;99.90
19007;DHT22;9636;47.382;8.480;2023-11-19T01:51:05;12.70;99.90
19007;DHT22;9636;47.382;8.480;2023-11-19T01:53:34;12.70;99.90
19007;DHT22;9636;47.382;8.480;2023-11-19T01:56:01;12.70;99.90
19007;DHT22;9636;47.382;8.480;2023-11-19T01:58:29;12.70;99.90
19007;DHT22;9636;47.382;8.480;2023-11-19T02:00:57;12.70;99.90
19007;DHT22;9636;47.382;8.480;2023-11-19T02:03:26;12.70;99.90
19007;DHT22;9636;47.382;8.480;2023-11-19T02:05:54;12.70;99.90
19007;DHT22;9636;47.382;8.480;2023-11-19T02:08:21;12.70;99.90
19007;DHT22;9636;47.382;8.480;2023-11-19T02:10:48;12.70;99.90
19007;DHT22;9636;47.382;8.480;2023-11-19T02:13:15;12.70;99.90
19007;DHT22;9636;47.382;8.480;2023-11-19T02:15:42;12.70;99.90
19007;DHT22;9636;47.382;8.480;2023-11-19T02:18:20;12.70;99.90
19007;DHT22;9636;47.382;8.480;2023-11-19T02:20:48;12.70;99.90
19007;DHT22;9636;47.382;8.480;2023-11-19T02:23:15;12.70;99.90
19007;DHT22;9636;47.382;8.480;2023-11-19T02:25:43;12.70;99.90
19007;DHT22;9636;47.382;8.480;2023-11-19T02:28:13;12.70;99.90
19007;DHT22;9636;47.382;8.480;2023-11-19T02:30:42;12.70;99.90
19007;DHT22;9636;47.382;8.480;2023-11-19T02:33:08;12.70;99.90
19007;DHT22;9636;47.382;8.480;2023-11-19T02:35:35;12.70;99.90
19007;DHT22;9636;47.382;8.480;2023-11-19T02:38:02;12.70;99.90
19007;DHT22;9636;47.382;8.480;2023-11-19T02:40:32;12.70;99.90
19007;DHT22;9636;47.382;8.480;2023-11-19T02:42:59;12.70;99.90
19007;DHT22;9636;47.382;8.480;2023-11-19T02:45:27;12.70;99.90
19007;DHT22;9636;47.382;8.480;2023-11-19T02:47:56;12.70;99.90
19007;DHT22;9636;47.382;8.480;2023-11-19T02:50:23;12.70;99.90
19007;DHT22;9636;47.382;8.480;2023-11-19T02:52:53;12.70;99.90
19007;DHT22;9636;47.382;8.480;2023-11-19T02:55:22;12.70;99.90
19007;DHT22;9636;47.382;8.480;2023-11-19T02:57:50;12.70;99.90
19007;DHT22;9636;47.382;8.480;2023-11-19T03:00:19;12.70;99.90
19007;DHT22;9636;47.382;8.480;2023-11-19T03:02:50;12.70;99.90
19007;DHT22;9636;47.382;8.480;2023-11-19T03:05:25;12.70;99.90
19007;DHT22;9636;47.382;8.480;2023-11-19T03:07:55;12.70;99.90
19007;DHT22;9636;47.382;8.480;2023-11-19T03:10:22;12.70;99.90
19007;DHT22;9636;47.382;8.480;2023-11-19T03:12:49;12.70;99.90
19007;DHT22;9636;47.382;8.480;2023-11-19T03:15:16;12.70;99.90
19007;DHT22;9636;47.382;8.480;2023-11-19T03:17:43;12.70;99.90
19007;DHT22;9636;47.382;8.480;2023-11-19T03:20:12;12.70;99.90
19007;DHT22;9636;47.382;8.480;2023-11-19T03:22:41;12.70;99.90
19007;DHT22;9636;47.382;8.480;2023-11-19T03:25:08;12.70;99.90
19007;DHT22;9636;47.382;8.480;2023-11-19T03:27:35;12.70;99.90
19007;DHT22;9636;47.382;8.480;2023-11-19T03:30:02;12.70;99.90
19007;DHT22;9636;47.382;8.480;2023-11-19T03:32:30;12.60;99.90
19007;DHT22;9636;47.382;8.480;2023-11-19T03:34:57;12.60;99.90
19007;DHT22;9636;47.382;8.480;2023-11-19T03:37:26;12.60;99.90
19007;DHT22;9636;47.382;8.480;2023-11-19T03:39:53;12.60;99.90
19007;DHT22;9636;47.382;8.480;2023-11-19T03:42:20;12.60;99.90
19007;DHT22;9636;47.382;8.480;2023-11-19T03:44:47;12.60;99.90
19007;DHT22;9636;47.382;8.480;2023-11-19T03:47:15;12.60;99.90
19007;DHT22;9636;47.382;8.480;2023-11-19T03:49:42;12.60;99.90
19007;DHT22;9636;47.382;8.480;2023-11-19T03:52:09;12.60;99.90
19007;DHT22;9636;47.382;8.480;2023-11-19T03:54:38;12.60;99.90
19007;DHT22;9636;47.382;8.480;2023-11-19T03:57:05;12.60;99.90
19007;DHT22;9636;47.382;8.480;2023-11-19T03:59:31;12.60;99.90
19007;DHT22;9636;47.382;8.480;2023-11-19T04:01:59;12.60;99.90
19007;DHT22;9636;47.382;8.480;2023-11-19T04:04:26;12.60;99.90
19007;DHT22;9636;47.382;8.480;2023-11-19T04:06:53;12.60;99.90
19007;DHT22;9636;47.382;8.480;2023-11-19T04:09:20;12.60;99.90
19007;DHT22;9636;47.382;8.480;2023-11-19T04:11:48;12.60;99.90
19007;DHT22;9636;47.382;8.480;2023-11-19T04:14:15;12.60;99.90
19007;DHT22;9636;47.382;8.480;2023-11-19T04:16:43;12.60;99.90
19007;DHT22;9636;47.382;8.480;2023-11-19T04:19:10;12.60;99.90
19007;DHT22;9636;47.382;8.480;2023-11-19T04:21:39;12.60;99.90
19007;DHT22;9636;47.382;8.480;2023-11-19T04:24:07;12.60;99.90
19007;DHT22;9636;47.382;8.480;2023-11-19T04:26:33;12.60;99.90
19007;DHT22;9636;47.382;8.480;2023-11-19T04:29:03;12.60;99.90
19007;DHT22;9636;47.382;8.480;2023-11-19T04:31:30;12.60;99.90
19007;DHT22;9636;47.382;8.480;2023-11-19T04:33:58;12.60;99.90
19007;DHT22;9636;47.382;8.480;2023-11-19T04:36:25;12.60;99.90
19007;DHT22;9636;47.382;8.480;2023-11-19T04:38:53;12.60;99.90
19007;DHT22;9636;47.382;8.480;2023-11-19T04:41:19;12.60;99.90
19007;DHT22;9636;47.382;8.480;2023-11-19T04:43:46;12.60;99.90
19007;DHT22;9636;47.382;8.480;2023-11-19T04:46:14;12.60;99.90
19007;DHT22;9636;47.382;8.480;2023-11-19T04:48:41;12.60;99.90
19007;DHT22;9636;47.382;8.480;2023-11-19T04:51:08;12.60;99.90
19007;DHT22;9636;47.382;8.480;2023-11-19T04:53:36;12.60;99.90
19007;DHT22;9636;47.382;8.480;2023-11-19T04:56:07;12.60;99.90
19007;DHT22;9636;47.382;8.480;2023-11-19T04:58:34;12.60;99.90
19007;DHT22;9636;47.382;8.480;2023-11-19T05:01:02;12.60;99.90
19007;DHT22;9636;47.382;8.480;2023-11-19T05:03:31;12.60;99.90
19007;DHT22;9636;47.382;8.480;2023-11-19T05:05:58;12.60;99.90
19007;DHT22;9636;47.382;8.480;2023-11-19T05:08:24;12.60;99.90
19007;DHT22;9636;47.382;8.480;2023-11-19T05:10:51;12.60;99.90
19007;DHT22;9636;47.382;8.480;2023-11-19T05:13:19;12.60;99.90
19007;DHT22;9636;47.382;8.480;2023-11-19T05:15:46;12.60;99.90
19007;DHT22;9636;47.382;8.480;2023-11-19T05:18:13;12.60;99.90
19007;DHT22;9636;47.382;8.480;2023-11-19T05:20:41;12.70;99.90
19007;DHT22;9636;47.382;8.480;2023-11-19T05:23:08;12.60;99.90
19007;DHT22;9636;47.382;8.480;2023-11-19T05:25:36;12.60;99.90
19007;DHT22;9636;47.382;8.480;2023-11-19T05:28:03;12.60;99.90
19007;DHT22;9636;47.382;8.480;2023-11-19T05:30:30;12.60;99.90
19007;DHT22;9636;47.382;8.480;2023-11-19T05:32:57;12.60;99.90
19007;DHT22;9636;47.382;8.480;2023-11-19T05:35:24;12.70;99.90
19007;DHT22;9636;47.382;8.480;2023-11-19T05:37:52;12.60;99.90
19007;DHT22;9636;47.382;8.480;2023-11-19T05:40:19;12.60;99.90
19007;DHT22;9636;47.382;8.480;2023-11-19T05:42:46;12.60;99.90
19007;DHT22;9636;47.382;8.480;2023-11-19T05:45:13;12.60;99.90
19007;DHT22;9636;47.382;8.480;2023-11-19T05:47:40;12.60;99.90
19007;DHT22;9636;47.382;8.480;2023-11-19T05:50:08;12.60;99.90
19007;DHT22;9636;47.382;8.480;2023-11-19T05:52:35;12.70;99.90
19007;DHT22;9636;47.382;8.480;2023-11-19T05:55:04;12.60;99.90
19007;DHT22;9636;47.382;8.480;2023-11-19T05:57:34;12.70;99.90
19007;DHT22;9636;47.382;8.480;2023-11-19T06:00:01;12.70;99.90
19007;DHT22;9636;47.382;8.480;2023-11-19T06:02:30;12.70;99.90
19007;DHT22;9636;47.382;8.480;2023-11-19T06:04:57;12.70;99.90
19007;DHT22;9636;47.382;8.480;2023-11-19T06:07:23;12.70;99.90
19007;DHT22;9636;47.382;8.480;2023-11-19T06:09:50;12.70;99.90
19007;DHT22;9636;47.382;8.480;2023-11-19T06:12:18;12.70;99.90
19007;DHT22;9636;47.382;8.480;2023-11-19T06:14:45;12.70;99.90
19007;DHT22;9636;47.382;8.480;2023-11-19T06:17:12;12.70;99.90
19007;DHT22;9636;47.382;8.480;2023-11-19T06:19:39;12.70;99.90
19007;DHT22;9636;47.382;8.480;2023-11-19T06:22:06;12.70;99.90
19007;DHT22;9636;47.382;8.480;2023-11-19T06:24:33;12.70;99.90
19007;DHT22;9636;47.382;8.480;2023-11-19T06:26:59;12.70;99.90
19007;DHT22;9636;47.382;8.480;2023-11-19T06:29:28;12.70;99.90
19007;DHT22;9636;47.382;8.480;2023-11-19T06:31:55;12.70;99.90
19007;DHT22;9636;47.382;8.480;2023-11-19T06:34:21;12.70;99.90
19007;DHT22;9636;47.382;8.480;2023-11-19T06:36:48;12.70;99.90
19007;DHT22;9636;47.382;8.480;2023-11-19T06:39:15;12.70;99.90
19007;DHT22;9636;47.382;8.480;2023-11-19T06:41:45;12.70;99.90
19007;DHT22;9636;47.382;8.480;2023-11-19T06:44:11;12.70;99.90
19007;DHT22;9636;47.382;8.480;2023-11-19T06:46:40;12.70;99.90
19007;DHT22;9636;47.382;8.480;2023-11-19T06:49:07;12.70;99.90
19007;DHT22;9636;47.382;8.480;2023-11-19T06:51:34;12.70;99.90
19007;DHT22;9636;47.382;8.480;2023-11-19T06:54:00;12.70;99.90
19007;DHT22;9636;47.382;8.480;2023-11-19T06:56:27;12.70;99.90
19007;DHT22;9636;47.382;8.480;2023-11-19T06:58:54;12.70;99.90
19007;DHT22;9636;47.382;8.480;2023-11-19T07:01:21;12.70;99.90
19007;DHT22;9636;47.382;8.480;2023-11-19T07:03:49;12.70;99.90
19007;DHT22;9636;47.382;8.480;2023-11-19T07:06:17;12.70;99.90
19007;DHT22;9636;47.382;8.480;2023-11-19T07:08:44;12.80;99.90
19007;DHT22;9636;47.382;8.480;2023-11-19T07:11:11;12.70;99.90
19007;DHT22;9636;47.382;8.480;2023-11-19T07:13:39;12.80;99.90
19007;DHT22;9636;47.382;8.480;2023-11-19T07:16:07;12.80;99.90
19007;DHT22;9636;47.382;8.480;2023-11-19T07:18:36;12.80;99.90
19007;DHT22;9636;47.382;8.480;2023-11-19T07:21:06;12.80;99.90
19007;DHT22;9636;47.382;8.480;2023-11-19T07:23:35;12.80;99.90
19007;DHT22;9636;47.382;8.480;2023-11-19T07:26:05;12.80;99.90
19007;DHT22;9636;47.382;8.480;2023-11-19T07:28:33;12.80;99.90
19007;DHT22;9636;47.382;8.480;2023-11-19T07:31:00;12.80;99.90
19007;DHT22;9636;47.382;8.480;2023-11-19T07:33:27;12.80;99.90
19007;DHT22;9636;47.382;8.480;2023-11-19T07:35:55;12.80;99.90
19007;DHT22;9636;47.382;8.480;2023-11-19T07:38:23;12.80;99.90
19007;DHT22;9636;47.382;8.480;2023-11-19T07:40:50;12.90;99.90
19007;DHT22;9636;47.382;8.480;2023-11-19T07:43:17;12.90;99.90
19007;DHT22;9636;47.382;8.480;2023-11-19T07:45:43;12.90;99.90
19007;DHT22;9636;47.382;8.480;2023-11-19T07:48:11;12.90;99.90
19007;DHT22;9636;47.382;8.480;2023-11-19T07:50:38;12.90;99.90
19007;DHT22;9636;47.382;8.480;2023-11-19T07:53:06;12.90;99.90
19007;DHT22;9636;47.382;8.480;2023-11-19T07:55:35;12.90;99.90
19007;DHT22;9636;47.382;8.480;2023-11-19T07:58:02;12.90;99.90
19007;DHT22;9636;47.382;8.480;2023-11-19T08:00:29;12.90;99.90
19007;DHT22;9636;47.382;8.480;2023-11-19T08:02:56;13.00;99.90
19007;DHT22;9636;47.382;8.480;2023-11-19T08:05:23;13.00;99.90
19007;DHT22;9636;47.382;8.480;2023-11-19T08:07:50;13.00;99.90
19007;DHT22;9636;47.382;8.480;2023-11-19T08:10:17;13.00;99.90
19007;DHT22;9636;47.382;8.480;2023-11-19T08:12:45;13.00;99.90
19007;DHT22;9636;47.382;8.480;2023-11-19T08:15:12;13.00;99.90
19007;DHT22;9636;47.382;8.480;2023-11-19T08:17:39;13.00;99.90
19007;DHT22;9636;47.382;8.480;2023-11-19T08:20:07;13.00;99.90
19007;DHT22;9636;47.382;8.480;2023-11-19T08:22:35;13.00;99.90
19007;DHT22;9636;47.382;8.480;2023-11-19T08:25:03;13.00;99.90
19007;DHT22;9636;47.382;8.480;2023-11-19T08:27:30;13.00;99.90
19007;DHT22;9636;47.382;8.480;2023-11-19T08:29:58;13.00;99.90
19007;DHT22;9636;47.382;8.480;2023-11-19T08:32:25;13.10;99.90
19007;DHT22;9636;47.382;8.480;2023-11-19T08:34:52;13.10;99.90
19007;DHT22;9636;47.382;8.480;2023-11-19T08:37:19;13.10;99.90
19007;DHT22;9636;47.382;8.480;2023-11-19T08:39:47;13.10;99.90
19007;DHT22;9636;47.382;8.480;2023-11-19T08:42:14;13.30;99.90
19007;DHT22;9636;47.382;8.480;2023-11-19T08:44:42;13.50;99.90
19007;DHT22;9636;47.382;8.480;2023-11-19T08:47:11;13.70;99.90
19007;DHT22;9636;47.382;8.480;2023-11-19T08:49:38;13.90;99.90
19007;DHT22;9636;47.382;8.480;2023-11-19T08:52:05;14.20;99.90
19007;DHT22;9636;47.382;8.480;2023-11-19T08:54:33;14.50;99.90
19007;DHT22;9636;47.382;8.480;2023-11-19T08:57:00;14.70;99.90
19007;DHT22;9636;47.382;8.480;2023-11-19T08:59:28;15.00;99.90
19007;DHT22;9636;47.382;8.480;2023-11-19T09:01:55;15.20;99.90
19007;DHT22;9636;47.382;8.480;2023-11-19T09:04:23;15.30;99.90
19007;DHT22;9636;47.382;8.480;2023-11-19T09:06:50;15.60;99.90
19007;DHT22;9636;47.382;8.480;2023-11-19T09:09:17;15.70;99.90
19007;DHT22;9636;47.382;8.480;2023-11-19T09:11:44;15.90;99.90
19007;DHT22;9636;47.382;8.480;2023-11-19T09:14:11;16.10;99.90
19007;DHT22;9636;47.382;8.480;2023-11-19T09:16:37;16.20;99.90
19007;DHT22;9636;47.382;8.480;2023-11-19T09:19:04;16.40;99.90
19007;DHT22;9636;47.382;8.480;2023-11-19T09:21:32;16.50;99.90
19007;DHT22;9636;47.382;8.480;2023-11-19T09:24:00;16.70;99.90
19007;DHT22;9636;47.382;8.480;2023-11-19T09:26:26;16.80;99.90
19007;DHT22;9636;47.382;8.480;2023-11-19T09:28:53;16.90;99.90
19007;DHT22;9636;47.382;8.480;2023-11-19T09:31:20;17.10;99.90
19007;DHT22;9636;47.382;8.480;2023-11-19T09:33:47;17.20;99.90
19007;DHT22;9636;47.382;8.480;2023-11-19T09:36:14;17.30;99.90
19007;DHT22;9636;47.382;8.480;2023-11-19T09:38:43;17.40;99.90
19007;DHT22;9636;47.382;8.480;2023-11-19T09:41:11;17.50;99.90
19007;DHT22;9636;47.382;8.480;2023-11-19T09:43:39;17.60;99.90
19007;DHT22;9636;47.382;8.480;2023-11-19T09:46:09;17.70;99.90
19007;DHT22;9636;47.382;8.480;2023-11-19T09:48:37;17.70;99.90
19007;DHT22;9636;47.382;8.480;2023-11-19T09:51:07;17.60;99.90
19007;DHT22;9636;47.382;8.480;2023-11-19T09:53:35;17.60;99.90
19007;DHT22;9636;47.382;8.480;2023-11-19T09:56:04;17.50;99.90
19007;DHT22;9636;47.382;8.480;2023-11-19T09:58:32;17.60;99.90
19007;DHT22;9636;47.382;8.480;2023-11-19T10:00:59;17.50;99.90
19007;DHT22;9636;47.382;8.480;2023-11-19T10:03:33;17.50;99.90
19007;DHT22;9636;47.382;8.480;2023-11-19T10:06:01;17.40;99.90
19007;DHT22;9636;47.382;8.480;2023-11-19T10:08:28;17.40;99.90
19007;DHT22;9636;47.382;8.480;2023-11-19T10:10:54;17.30;99.90
19007;DHT22;9636;47.382;8.480;2023-11-19T10:13:28;17.30;99.90
19007;DHT22;9636;47.382;8.480;2023-11-19T10:15:56;17.30;99.90
19007;DHT22;9636;47.382;8.480;2023-11-19T10:18:25;17.20;99.90
19007;DHT22;9636;47.382;8.480;2023-11-19T10:20:52;17.20;99.90
19007;DHT22;9636;47.382;8.480;2023-11-19T10:23:20;17.20;99.90
19007;DHT22;9636;47.382;8.480;2023-11-19T10:25:47;17.20;99.90
19007;DHT22;9636;47.382;8.480;2023-11-19T10:28:15;17.20;99.90
19007;DHT22;9636;47.382;8.480;2023-11-19T10:30:44;17.20;99.90
19007;DHT22;9636;47.382;8.480;2023-11-19T10:33:11;17.10;99.90
19007;DHT22;9636;47.382;8.480;2023-11-19T10:35:53;17.10;99.90
19007;DHT22;9636;47.382;8.480;2023-11-19T10:38:20;17.20;99.90
19007;DHT22;9636;47.382;8.480;2023-11-19T10:40:47;17.20;99.90
19007;DHT22;9636;47.382;8.480;2023-11-19T10:43:15;17.20;99.90
19007;DHT22;9636;47.382;8.480;2023-11-19T10:45:41;17.20;99.90
19007;DHT22;9636;47.382;8.480;2023-11-19T10:48:10;17.20;99.90
19007;DHT22;9636;47.382;8.480;2023-11-19T10:50:39;17.20;99.90
19007;DHT22;9636;47.382;8.480;2023-11-19T10:53:07;17.10;99.90
19007;DHT22;9636;47.382;8.480;2023-11-19T10:55:36;17.10;99.90
19007;DHT22;9636;47.382;8.480;2023-11-19T10:58:05;17.10;99.90
19007;DHT22;9636;47.382;8.480;2023-11-19T11:00:37;17.10;99.90
19007;DHT22;9636;47.382;8.480;2023-11-19T11:03:10;17.10;99.90
19007;DHT22;9636;47.382;8.480;2023-11-19T11:05:38;17.10;99.90
19007;DHT22;9636;47.382;8.480;2023-11-19T11:08:06;17.10;99.90
19007;DHT22;9636;47.382;8.480;2023-11-19T11:10:40;17.00;99.90
19007;DHT22;9636;47.382;8.480;2023-11-19T11:13:09;17.10;99.90
19007;DHT22;9636;47.382;8.480;2023-11-19T11:15:37;17.00;99.90
19007;DHT22;9636;47.382;8.480;2023-11-19T11:18:07;17.00;99.90
19007;DHT22;9636;47.382;8.480;2023-11-19T11:20:36;17.10;99.90
19007;DHT22;9636;47.382;8.480;2023-11-19T11:26:21;17.10;99.90
19007;DHT22;9636;47.382;8.480;2023-11-19T11:28:58;17.10;99.90
19007;DHT22;9636;47.382;8.480;2023-11-19T11:31:34;17.10;99.90
19007;DHT22;9636;47.382;8.480;2023-11-19T11:34:28;17.00;99.90
19007;DHT22;9636;47.382;8.480;2023-11-19T11:37:18;17.00;99.90
19007;DHT22;9636;47.382;8.480;2023-11-19T11:39:46;17.00;99.90
19007;DHT22;9636;47.382;8.480;2023-11-19T11:42:32;17.00;99.90
19007;DHT22;9636;47.382;8.480;2023-11-19T11:45:00;17.00;99.90
19007;DHT22;9636;47.382;8.480;2023-11-19T11:48:07;17.00;99.90
19007;DHT22;9636;47.382;8.480;2023-11-19T11:50:36;17.00;99.90
19007;DHT22;9636;47.382;8.480;2023-11-19T11:53:21;17.00;99.90
19007;DHT22;9636;47.382;8.480;2023-11-19T11:55:54;17.00;99.90
19007;DHT22;9636;47.382;8.480;2023-11-19T11:58:30;17.10;99.90
19007;DHT22;9636;47.382;8.480;2023-11-19T12:00:58;17.10;99.90
19007;DHT22;9636;47.382;8.480;2023-11-19T12:03:28;17.10;99.90
19007;DHT22;9636;47.382;8.480;2023-11-19T12:05:55;17.00;99.90
19007;DHT22;9636;47.382;8.480;2023-11-19T12:08:28;17.00;99.90
19007;DHT22;9636;47.382;8.480;2023-11-19T12:10:56;17.10;99.90
19007;DHT22;9636;47.382;8.480;2023-11-19T12:13:47;17.10;99.90
19007;DHT22;9636;47.382;8.480;2023-11-19T12:16:14;17.10;99.90
19007;DHT22;9636;47.382;8.480;2023-11-19T12:18:41;17.20;99.90
19007;DHT22;9636;47.382;8.480;2023-11-19T12:21:08;17.20;99.90
19007;DHT22;9636;47.382;8.480;2023-11-19T12:23:45;17.30;99.90
19007;DHT22;9636;47.382;8.480;2023-11-19T12:26:35;17.30;99.90
19007;DHT22;9636;47.382;8.480;2023-11-19T12:29:02;17.30;99.90
19007;DHT22;9636;47.382;8.480;2023-11-19T12:31:33;17.30;99.90
19007;DHT22;9636;47.382;8.480;2023-11-19T12:34:10;17.40;99.90
19007;DHT22;9636;47.382;8.480;2023-11-19T12:36:39;17.30;99.90
19007;DHT22;9636;47.382;8.480;2023-11-19T12:39:08;17.30;99.90
19007;DHT22;9636;47.382;8.480;2023-11-19T12:41:56;17.30;99.90
19007;DHT22;9636;47.382;8.480;2023-11-19T12:44:25;17.30;99.90
19007;DHT22;9636;47.382;8.480;2023-11-19T12:47:02;17.30;99.90
19007;DHT22;9636;47.382;8.480;2023-11-19T12:49:30;17.30;99.90
19007;DHT22;9636;47.382;8.480;2023-11-19T12:51:57;17.30;99.90
19007;DHT22;9636;47.382;8.480;2023-11-19T12:54:34;17.30;99.90
19007;DHT22;9636;47.382;8.480;2023-11-19T12:57:01;17.30;99.90
19007;DHT22;9636;47.382;8.480;2023-11-19T12:59:28;17.30;99.90
19007;DHT22;9636;47.382;8.480;2023-11-19T13:01:54;17.30;99.90
19007;DHT22;9636;47.382;8.480;2023-11-19T13:04:21;17.30;99.90
19007;DHT22;9636;47.382;8.480;2023-11-19T13:06:50;17.30;99.90
19007;DHT22;9636;47.382;8.480;2023-11-19T13:09:23;17.30;99.90
19007;DHT22;9636;47.382;8.480;2023-11-19T13:11:52;17.30;99.90
19007;DHT22;9636;47.382;8.480;2023-11-19T13:14:20;17.40;99.90
19007;DHT22;9636;47.382;8.480;2023-11-19T13:16:47;17.40;99.90
19007;DHT22;9636;47.382;8.480;2023-11-19T13:19:14;17.50;99.90
19007;DHT22;9636;47.382;8.480;2023-11-19T13:21:44;17.70;99.90
19007;DHT22;9636;47.382;8.480;2023-11-19T13:24:12;17.80;99.90
19007;DHT22;9636;47.382;8.480;2023-11-19T13:26:39;17.80;99.90
19007;DHT22;9636;47.382;8.480;2023-11-19T13:29:07;17.80;99.90
19007;DHT22;9636;47.382;8.480;2023-11-19T13:31:36;17.80;99.90
19007;DHT22;9636;47.382;8.480;2023-11-19T13:34:02;17.80;99.90
19007;DHT22;9636;47.382;8.480;2023-11-19T13:36:29;17.80;99.90
19007;DHT22;9636;47.382;8.480;2023-11-19T13:38:56;17.80;99.90
19007;DHT22;9636;47.382;8.480;2023-11-19T13:41:25;17.70;99.90
19007;DHT22;9636;47.382;8.480;2023-11-19T13:43:51;17.80;99.90
19007;DHT22;9636;47.382;8.480;2023-11-19T13:46:20;17.80;99.90
19007;DHT22;9636;47.382;8.480;2023-11-19T13:48:46;17.70;99.90
19007;DHT22;9636;47.382;8.480;2023-11-19T13:51:15;17.80;99.90
19007;DHT22;9636;47.382;8.480;2023-11-19T13:53:42;17.70;99.90
19007;DHT22;9636;47.382;8.480;2023-11-19T13:56:09;17.80;99.90
19007;DHT22;9636;47.382;8.480;2023-11-19T13:58:36;17.70;99.90
19007;DHT22;9636;47.382;8.480;2023-11-19T14:01:03;17.70;99.90
19007;DHT22;9636;47.382;8.480;2023-11-19T14:03:31;17.70;99.90
19007;DHT22;9636;47.382;8.480;2023-11-19T14:05:59;17.80;99.90
19007;DHT22;9636;47.382;8.480;2023-11-19T14:08:26;17.70;99.90
19007;DHT22;9636;47.382;8.480;2023-11-19T14:10:53;17.70;99.90
19007;DHT22;9636;47.382;8.480;2023-11-19T14:13:20;17.70;99.90
19007;DHT22;9636;47.382;8.480;2023-11-19T14:15:49;17.60;99.90
19007;DHT22;9636;47.382;8.480;2023-11-19T14:18:16;17.60;99.90
19007;DHT22;9636;47.382;8.480;2023-11-19T14:20:44;17.70;99.90
19007;DHT22;9636;47.382;8.480;2023-11-19T14:23:11;17.60;99.90
19007;DHT22;9636;47.382;8.480;2023-11-19T14:25:38;17.60;99.90
19007;DHT22;9636;47.382;8.480;2023-11-19T14:28:04;17.60;99.90
19007;DHT22;9636;47.382;8.480;2023-11-19T14:30:31;17.50;99.90
19007;DHT22;9636;47.382;8.480;2023-11-19T14:32:59;17.60;99.90
19007;DHT22;9636;47.382;8.480;2023-11-19T14:35:26;17.50;99.90
19007;DHT22;9636;47.382;8.480;2023-11-19T14:37:54;17.50;99.90
19007;DHT22;9636;47.382;8.480;2023-11-19T14:40:20;17.60;99.90
19007;DHT22;9636;47.382;8.480;2023-11-19T14:42:47;17.50;99.90
19007;DHT22;9636;47.382;8.480;2023-11-19T14:45:14;17.50;99.90
19007;DHT22;9636;47.382;8.480;2023-11-19T14:47:41;17.50;99.90
19007;DHT22;9636;47.382;8.480;2023-11-19T14:50:09;17.50;99.90
19007;DHT22;9636;47.382;8.480;2023-11-19T14:52:35;17.50;99.90
19007;DHT22;9636;47.382;8.480;2023-11-19T14:55:04;17.40;99.90
19007;DHT22;9636;47.382;8.480;2023-11-19T14:57:31;17.40;99.90
19007;DHT22;9636;47.382;8.480;2023-11-19T14:59:58;17.40;99.90
19007;DHT22;9636;47.382;8.480;2023-11-19T15:02:26;17.40;99.90
19007;DHT22;9636;47.382;8.480;2023-11-19T15:04:53;17.40;99.90
19007;DHT22;9636;47.382;8.480;2023-11-19T15:07:20;17.30;99.90
19007;DHT22;9636;47.382;8.480;2023-11-19T15:09:47;17.30;99.90
19007;DHT22;9636;47.382;8.480;2023-11-19T15:12:15;17.30;99.90
19007;DHT22;9636;47.382;8.480;2023-11-19T15:14:42;17.30;99.90
19007;DHT22;9636;47.382;8.480;2023-11-19T15:17:08;17.30;99.90
19007;DHT22;9636;47.382;8.480;2023-11-19T15:19:36;17.30;99.90
19007;DHT22;9636;47.382;8.480;2023-11-19T15:22:03;17.20;99.90
19007;DHT22;9636;47.382;8.480;2023-11-19T15:24:31;17.20;99.90
19007;DHT22;9636;47.382;8.480;2023-11-19T15:26:57;17.20;99.90
19007;DHT22;9636;47.382;8.480;2023-11-19T15:29:26;17.10;99.90
19007;DHT22;9636;47.382;8.480;2023-11-19T15:31:54;17.10;99.90
19007;DHT22;9636;47.382;8.480;2023-11-19T15:34:20;17.10;99.90
19007;DHT22;9636;47.382;8.480;2023-11-19T15:36:47;17.10;99.90
19007;DHT22;9636;47.382;8.480;2023-11-19T15:39:14;17.10;99.90
19007;DHT22;9636;47.382;8.480;2023-11-19T15:41:41;17.10;99.90
19007;DHT22;9636;47.382;8.480;2023-11-19T15:44:08;17.10;99.90
19007;DHT22;9636;47.382;8.480;2023-11-19T15:46:36;17.10;99.90
19007;DHT22;9636;47.382;8.480;2023-11-19T15:49:03;17.00;99.90
19007;DHT22;9636;47.382;8.480;2023-11-19T15:51:30;17.00;99.90
19007;DHT22;9636;47.382;8.480;2023-11-19T15:53:56;17.00;99.90
19007;DHT22;9636;47.382;8.480;2023-11-19T15:56:23;17.00;99.90